Bandeira do Sul, Brazil
Current Conditions -  °F | °C
As of 1:00 PM on Wednesday 22 Oct 2014 (Local Time) from SBYS Reporting Station
Few Clouds Few Clouds  
Wind Chill: 84°   Ceiling: Unl
Heat Index: 84°   Visibility: 6mi
Dew Point: 57°   Wind: 10mph
Humidity: 40%   Direction: 50°NE
Pressure: 30.09"   Gusts: NA
Location:  21.73°S, 46.39°W
Report Text: SBYS 221500Z 05009KT 9999 FEW045 29/14 Q1019
Loading
Personal Weather Stations






























Interactive Weather Map
Tropical Storm Tracking
New forecast layout! Learn more

10-Day Weather Forecast

Advertisements
Track Severe Weather on mobile